Nearby METAR Reports

 

KMTN - Baltimore/Martin, Maryland, USA
Distance from station: SSE 8mi, 13km
Updated: Sat, 18-Nov-2017 3:09am EST
Clear
Clear
 Wind from calm
Wind: Calm
Temperature: 34°F , 1°C
Dew Point: 32°F , 0°C
Humidity: 93%
Barometer: 30.04 inHg , 1017.3 hPa
Clouds: Clear
Visibility: 10 miles , 16 km
2017/11/18 08:09 KMTN 180809Z AUTO 00000KT 10SM CLR 01/00 A3004 RMK AO2
KDMH - Baltimore/Dwntwn, Maryland, USA
Distance from station: SW 12mi, 19km
Updated: Fri, 17-Nov-2017 8:54pm EST
NOT Current

 
Temperature: 45°F , 7°C
Dew Point: 28°F , -2°C
Humidity: 53%
Barometer: 30.12 inHg , 1020 hPa
2017/11/18 01:54 KDMH 180154Z AUTO 07/M02 A3012 RMK AO1 SLP200 T00721017
 
KBWI - Balto/Wash Intl, Maryland, USA
Distance from station: SSW 20mi, 33km
Updated: Sat, 18-Nov-2017 2:54am EST
Partly cloudy
Partly cloudy
 Wind from calm
Wind: Calm
Temperature: 36°F , 2°C
Dew Point: 28°F , -2°C
Humidity: 75%
Barometer: 30.02 inHg , 1016.6 hPa
Clouds: Partly cloudy
Visibility: 10 miles , 16 km
Cloud details: Partly cloudy 25000 ft
2017/11/18 07:54 KBWI 180754Z 00000KT 10SM SCT250 02/M02 A3002 RMK AO2 SLP165 T00221022
KDMW - Carroll Cnty, Maryland, USA
Distance from station: WNW 30mi, 48km
Updated: Sat, 18-Nov-2017 3:05am EST
Clear
Clear
 Wind from S
Wind: S 8 mph , 13 km/h
Temperature: 39°F , 4°C
Wind Chill: 33°F , 1°C
Dew Point: 28°F , -2°C
Humidity: 65%
Barometer: 29.97 inHg , 1014.9 hPa
Clouds: Clear
Visibility: 10 miles , 16 km
2017/11/18 08:05 KDMW 180805Z AUTO 18007KT 10SM CLR 04/M02 A2997 RMK AO2
 
KNAK - Annapolis/Naval, Maryland, USA
Distance from station: S 30mi, 48km
Updated: Fri, 17-Nov-2017 8:54pm EST
NOT Current
Clear
Clear
 Wind from calm
Wind: Calm
Temperature: 41°F , 5°C
Dew Point: 37°F , 3°C
Humidity: 87%
Barometer: 30.13 inHg , 1020.3 hPa
Clouds: Clear
Visibility: 10 miles , 16 km
2017/11/18 01:54 KNAK 180154Z AUTO 00000KT 10SM CLR 05/03 A3013 RMK AO2 SLP203 T00500028
KW29 - Stevensville, Maryland, USA
Distance from station: SSE 31mi, 50km
Updated: Sat, 18-Nov-2017 3:00am EST
Clear
Clear
 Wind from S
Wind: S 7 mph , 11 km/h
Temperature: 43°F , 6°C
Wind Chill: 39°F , 4°C
Dew Point: 36°F , 2°C
Humidity: 76%
Barometer: 30.03 inHg , 1016.9 hPa
Clouds: Clear
Visibility: 10 miles , 16 km
2017/11/18 08:00 KW29 180800Z AUTO 18006KT 10SM CLR 06/02 A3003 RMK AO2
 
KCGS - College Park, Maryland, USA
Distance from station: SW 38mi, 61km
Updated: Sat, 18-Nov-2017 3:06am EST
Clear
Clear
 Wind from calm
Wind: Calm
Temperature: 30°F , -1°C
Dew Point: 28°F , -2°C
Humidity: 93%
Barometer: 30.02 inHg , 1016.6 hPa
Clouds: Clear
Visibility: 10 miles , 16 km
2017/11/18 08:06 KCGS 180806Z AUTO 00000KT 10SM CLR M01/M02 A3002 RMK AO1 T10131021
KGAI - Gaithersburg, Maryland, USA
Distance from station: WSW 40mi, 65km
Updated: Sat, 18-Nov-2017 2:56am EST
Clear
Clear
 Wind from SE
Wind: SE 5 mph , 7 km/h
Temperature: 36°F , 2°C
Wind Chill: 32°F , 0°C
Dew Point: 28°F , -2°C
Humidity: 75%
Barometer: 30.00 inHg , 1015.9 hPa
Clouds: Clear
Visibility: 10 miles , 16 km
2017/11/18 07:56 KGAI 180756Z AUTO 14004KT 10SM CLR 02/M02 A3000 RMK AO2 SLP191 T00221022 FZRANO
 
KTHV - York, Pennsylvania, USA
Distance from station: NNW 40mi, 65km
Updated: Sat, 18-Nov-2017 2:53am EST
Clear
Clear
 Wind from SE
Wind: SE 3 mph , 6 km/h
Temperature: 27°F , -3°C
Dew Point: 25°F , -4°C
Humidity: 93%
Barometer: 29.98 inHg , 1015.2 hPa
Clouds: Clear
Visibility: 10 miles , 16 km
2017/11/18 07:53 KTHV 180753Z AUTO 14003KT 10SM CLR M03/M04 A2998 RMK AO2 SLP156 T10281039
KFDK - Frederick, Maryland, USA
Distance from station: W 47mi, 75km
Updated: Sat, 18-Nov-2017 3:05am EST
Clear
Clear
 Wind from calm
Wind: Calm
Temperature: 30°F , -1°C
Dew Point: 30°F , -1°C
Humidity: 100%
Barometer: 30.02 inHg , 1016.6 hPa
Clouds: Clear
Visibility: 10 miles , 16 km
2017/11/18 08:05 KFDK 180805Z AUTO 00000KT 10SM CLR M01/M01 A3002 RMK AO2
 
KESN - Easton/Newnam, Maryland, USA
Distance from station: SSE 48mi, 78km
Updated: Sat, 18-Nov-2017 3:16am EST
Clear
Clear
 Wind from calm
Wind: Calm
Temperature: 37°F , 3°C
Dew Point: 32°F , 0°C
Humidity: 81%
Barometer: 30.07 inHg , 1018.3 hPa
Clouds: Clear
Visibility: 10 miles , 16 km
2017/11/18 08:16 KESN 180816Z AUTO 00000KT 10SM CLR 03/00 A3007 RMK AO2 T00320003
KDCA - Washington/Natl, Washington D.c., USA
Distance from station: SW 49mi, 79km
Updated: Sat, 18-Nov-2017 2:52am EST
Mostly cloudy
Mostly cloudy
 Wind from SSW
Wind: SSW 5 mph , 7 km/h
Temperature: 39°F , 4°C
Wind Chill: 35°F , 2°C
Dew Point: 34°F , 1°C
Humidity: 81%
Barometer: 30.03 inHg , 1016.9 hPa
Clouds: Mostly cloudy
Visibility: 10 miles , 16 km
Cloud details: Mostly cloudy 25000 ft
2017/11/18 07:52 KDCA 180752Z 20004KT 10SM BKN250 04/01 A3003 RMK AO2 SLP169 T00390011
 
KLNS - Lancaster, Pennsylvania, USA
Distance from station: N 49mi, 79km
Updated: Sat, 18-Nov-2017 2:53am EST
Clear
Clear
 Wind from calm
Wind: Calm
Temperature: 30°F , -1°C
Dew Point: 28°F , -2°C
Humidity: 93%
Barometer: 30.00 inHg , 1015.9 hPa
Clouds: Clear
Visibility: 9 miles , 14 km
2017/11/18 07:53 KLNS 180753Z AUTO 00000KT 9SM CLR M01/M02 A3000 RMK AO2 SLP160 T10111022
KILG - Wilmington, Delaware, USA
Distance from station: ENE 50mi, 81km
Updated: Sat, 18-Nov-2017 2:51am EST
Clear
Clear
 Wind from SSW
Wind: SSW 3 mph , 6 km/h
Temperature: 32°F , 0°C
Dew Point: 27°F , -3°C
Humidity: 80%
Barometer: 30.04 inHg , 1017.3 hPa
Clouds: Clear
Visibility: 10 miles , 16 km
2017/11/18 07:51 KILG 180751Z 21003KT 10SM CLR 00/M03 A3004 RMK AO2 SLP172 T00001028